createdAt,value
2018-02-06T00:01:51.909Z,99708.03
2018-02-06T00:04:19.594Z,99705.61
2018-02-06T00:06:47.278Z,99707.98
2018-02-06T00:09:14.866Z,99708.52
2018-02-06T00:11:42.643Z,99701.45
2018-02-06T00:14:10.206Z,99698.15
2018-02-06T00:16:37.743Z,99690.91
2018-02-06T00:19:05.468Z,99685.04
2018-02-06T00:21:33.117Z,99682.26
2018-02-06T00:24:00.740Z,99680.54
2018-02-06T00:26:28.287Z,99684.57
2018-02-06T00:28:55.843Z,99680.75
2018-02-06T00:31:23.750Z,99686.59
2018-02-06T00:33:51.587Z,99686.04
2018-02-06T00:36:19.178Z,99688.00
2018-02-06T00:38:46.736Z,99690.63
2018-02-06T00:41:14.554Z,99690.88
2018-02-06T00:43:42.110Z,99689.53
2018-02-06T00:46:09.685Z,99679.84
2018-02-06T00:48:37.257Z,99680.80
2018-02-06T00:51:04.819Z,99677.52
2018-02-06T00:53:32.393Z,99676.31
2018-02-06T00:55:59.933Z,99669.10
2018-02-06T00:58:27.569Z,99666.13
2018-02-06T01:00:55.134Z,99654.53
2018-02-06T01:03:22.693Z,99655.96
2018-02-06T01:05:50.250Z,99645.66
2018-02-06T01:08:17.934Z,99640.10
2018-02-06T01:10:45.770Z,99643.09
2018-02-06T01:13:13.338Z,99637.60
2018-02-06T01:15:41.085Z,99634.31
2018-02-06T01:18:08.823Z,99630.55
2018-02-06T01:20:36.657Z,99628.36
2018-02-06T01:23:04.461Z,99621.06
2018-02-06T01:25:32.035Z,99625.77
2018-02-06T01:27:59.616Z,99627.41
2018-02-06T01:30:27.191Z,99627.23
2018-02-06T01:32:55.035Z,99624.44
2018-02-06T01:35:22.849Z,99622.48
2018-02-06T01:37:50.671Z,99625.80
2018-02-06T01:40:18.234Z,99626.41
2018-02-06T01:42:45.964Z,99624.14
2018-02-06T01:45:13.576Z,99623.06
2018-02-06T01:47:41.106Z,99628.12
2018-02-06T01:50:08.669Z,99624.52
2018-02-06T01:52:36.341Z,99619.75
2018-02-06T01:55:03.953Z,99627.56
2018-02-06T01:57:31.574Z,99624.52
2018-02-06T01:59:59.125Z,99624.95
2018-02-06T02:02:26.693Z,99619.96
2018-02-06T02:04:54.278Z,99615.56
2018-02-06T02:07:22.083Z,99617.14
2018-02-06T02:09:49.699Z,99616.59
2018-02-06T02:12:17.257Z,99609.36
2018-02-06T02:14:45.037Z,99615.14
2018-02-06T02:17:12.585Z,99603.44
2018-02-06T02:19:40.177Z,99604.66
2018-02-06T02:22:07.991Z,99603.69
2018-02-06T02:24:35.614Z,99604.41
2018-02-06T02:27:03.187Z,99599.12
2018-02-06T02:29:30.768Z,99595.80
2018-02-06T02:31:58.351Z,99598.75
2018-02-06T02:34:26.082Z,99593.58
2018-02-06T02:36:53.898Z,99595.44
2018-02-06T02:39:21.439Z,99591.85
2018-02-06T04:39:52.433Z,99620.16
2018-02-06T04:42:20.035Z,99620.48
2018-02-06T04:44:47.782Z,99624.06
2018-02-06T04:47:15.413Z,99630.41
2018-02-06T04:49:43.159Z,99637.88
2018-02-06T04:52:10.698Z,99635.76
2018-02-06T04:54:38.491Z,99639.64
2018-02-06T04:57:06.067Z,99636.73
2018-02-06T04:59:33.657Z,99638.27
2018-02-06T05:02:01.209Z,99639.02
2018-02-06T05:04:29.062Z,99642.63
2018-02-06T05:06:56.851Z,99647.02
2018-02-06T05:09:24.402Z,99648.68
2018-02-06T05:11:52.216Z,99644.16
2018-02-06T05:14:19.817Z,99645.64
2018-02-06T05:16:47.382Z,99649.95
2018-02-06T05:19:14.971Z,99652.94
2018-02-06T05:21:42.594Z,99659.70
2018-02-06T05:24:10.154Z,99666.28
2018-02-06T05:26:37.756Z,99666.22
2018-02-06T05:29:05.306Z,99675.17
2018-02-06T05:31:33.060Z,99667.00
2018-02-06T05:34:00.639Z,99663.48
2018-02-06T05:36:28.194Z,99671.35
2018-02-06T05:38:56.014Z,99674.87
2018-02-06T05:41:23.606Z,99676.45
2018-02-06T05:43:51.157Z,99675.50
2018-02-06T05:46:18.968Z,99671.41
2018-02-06T05:48:46.525Z,99662.77
2018-02-06T05:51:14.197Z,99675.77
2018-02-06T05:53:41.808Z,99684.68
2018-02-06T05:56:09.657Z,99675.55
2018-02-06T05:58:37.213Z,99677.41
2018-02-06T06:01:04.866Z,99684.17
2018-02-06T06:03:32.597Z,99685.80
2018-02-06T06:06:00.203Z,99685.69
2018-02-06T06:08:27.766Z,99690.41
2018-02-06T06:10:55.447Z,99693.59
2018-02-06T06:13:23.058Z,99692.35
2018-02-06T06:15:50.621Z,99693.20
2018-02-06T06:18:18.401Z,99699.93
2018-02-06T06:20:45.965Z,99700.72
2018-02-06T06:23:13.514Z,99706.20
2018-02-06T06:25:41.084Z,99690.66
2018-02-06T06:28:08.872Z,99698.77
2018-02-06T06:30:36.606Z,99694.33
2018-02-06T06:33:04.165Z,99698.52
2018-02-06T06:35:31.726Z,99702.55
2018-02-06T06:37:59.545Z,99708.41
2018-02-06T06:40:27.109Z,99710.96
2018-02-06T06:42:54.690Z,99699.98
2018-02-06T06:45:22.499Z,99691.14
2018-02-06T06:47:50.181Z,99698.73
2018-02-06T06:50:17.749Z,99693.27
2018-02-06T06:52:45.344Z,99692.78
2018-02-06T06:55:13.988Z,99694.72
2018-02-06T06:57:41.792Z,99686.95
2018-02-06T07:00:09.406Z,99699.89
2018-02-06T07:02:36.940Z,99691.25
2018-02-06T07:05:04.514Z,99699.36
2018-02-06T07:07:32.263Z,99702.83
2018-02-06T07:09:59.829Z,99699.71
2018-02-06T07:12:27.447Z,99701.30
2018-02-06T07:14:55.007Z,99704.58
2018-02-06T07:17:22.834Z,99702.70
2018-02-06T07:19:50.403Z,99697.38
2018-02-06T07:22:17.981Z,99698.01
2018-02-06T07:24:45.789Z,99698.63
2018-02-06T07:27:13.612Z,99695.29
2018-02-06T07:29:41.222Z,99700.25
2018-02-06T07:32:08.786Z,99698.53
2018-02-06T07:34:36.461Z,99702.67
2018-02-06T07:37:04.179Z,99706.22
2018-02-06T07:39:31.741Z,99699.59
2018-02-06T07:41:59.427Z,99706.05
2018-02-06T07:44:27.041Z,99707.61
2018-02-06T07:46:54.851Z,99707.77
2018-02-06T07:49:22.408Z,99701.71
2018-02-06T07:51:50.072Z,99695.73
2018-02-06T07:54:17.796Z,99703.14
2018-02-06T07:56:45.360Z,99699.25
2018-02-06T07:59:12.934Z,99694.86
2018-02-06T08:01:40.488Z,99699.99
2018-02-06T08:04:08.530Z,99692.41
2018-02-06T08:06:36.311Z,99698.73
2018-02-06T08:09:04.810Z,99690.84
2018-02-06T08:11:32.773Z,99688.41
2018-02-06T08:14:00.320Z,99685.95
2018-02-06T08:16:27.881Z,99685.90
2018-02-06T08:18:55.479Z,99673.91
2018-02-06T08:21:23.104Z,99671.08
2018-02-06T08:23:50.670Z,99665.10
2018-02-06T08:26:18.227Z,99658.05
2018-02-06T08:28:45.851Z,99658.84
2018-02-06T08:31:13.498Z,99653.58
2018-02-06T08:33:41.081Z,99658.47
2018-02-06T08:36:08.682Z,99653.30
2018-02-06T08:38:36.532Z,99651.78
2018-02-06T08:41:04.309Z,99655.17
2018-02-06T08:43:32.147Z,99649.23
2018-02-06T08:45:59.741Z,99654.75
2018-02-06T08:48:27.297Z,99656.92
2018-02-06T08:50:55.126Z,99652.76
2018-02-06T08:53:22.720Z,99633.44
2018-02-06T08:55:50.460Z,99645.45
2018-02-06T08:58:18.045Z,99650.82
2018-02-06T09:00:45.795Z,99652.34
2018-02-06T09:03:13.368Z,99653.98
2018-02-06T09:05:41.477Z,99659.97
2018-02-06T09:08:09.046Z,99657.53
2018-02-06T09:10:36.672Z,99654.31
2018-02-06T09:13:04.291Z,99657.94
2018-02-06T09:15:31.876Z,99661.19
2018-02-06T09:17:59.489Z,99658.08
2018-02-06T09:20:27.133Z,99656.25
2018-02-06T09:22:54.821Z,99650.48
2018-02-06T09:25:22.393Z,99639.88
2018-02-06T09:27:49.965Z,99636.60
2018-02-06T09:30:17.711Z,99628.36
2018-02-06T09:32:45.282Z,99628.00
2018-02-06T09:35:12.852Z,99629.24
2018-02-06T09:37:40.665Z,99633.63
2018-02-06T09:40:08.237Z,99639.59
2018-02-06T09:42:35.798Z,99633.53
2018-02-06T09:45:03.620Z,99633.81
2018-02-06T09:47:31.224Z,99638.20
2018-02-06T09:49:58.812Z,99634.08
2018-02-06T09:52:26.578Z,99625.95
2018-02-06T09:54:54.238Z,99631.94
2018-02-06T09:57:21.828Z,99617.06
2018-02-06T09:59:49.418Z,99620.75
2018-02-06T10:02:17.006Z,99616.20
2018-02-06T10:04:44.653Z,99612.13
2018-02-06T10:07:12.229Z,99607.05
2018-02-06T10:09:40.004Z,99604.41
2018-02-06T10:12:07.630Z,99591.93
2018-02-06T10:14:35.228Z,99596.84
2018-02-06T10:17:02.789Z,99586.68
2018-02-06T10:19:30.497Z,99581.77
2018-02-06T10:21:58.165Z,99578.35
2018-02-06T10:24:25.748Z,99577.30
2018-02-06T10:26:53.421Z,99575.72
2018-02-06T10:29:21.133Z,99565.79
2018-02-06T10:31:48.860Z,99573.64
2018-02-06T10:34:16.432Z,99569.72
2018-02-06T10:36:44.202Z,99565.60
2018-02-06T10:39:11.761Z,99560.78
2018-02-06T10:41:39.535Z,99551.53
2018-02-06T10:44:07.251Z,99549.23
2018-02-06T10:46:34.877Z,99550.08
2018-02-06T10:49:02.445Z,99549.42
2018-02-06T10:51:30.011Z,99542.81
2018-02-06T10:53:57.582Z,99540.20
2018-02-06T10:56:25.304Z,99535.88
2018-02-06T10:58:52.891Z,99532.10
2018-02-06T11:01:20.675Z,99530.63
2018-02-06T11:03:48.494Z,99528.08
2018-02-06T11:06:16.093Z,99527.58
2018-02-06T11:08:43.813Z,99526.20
2018-02-06T11:11:11.388Z,99526.47
2018-02-06T11:13:38.942Z,99528.20
2018-02-06T11:16:06.506Z,99530.25
2018-02-06T11:18:34.304Z,99525.89
2018-02-06T11:21:01.957Z,99519.37
2018-02-06T11:23:29.531Z,99517.70
2018-02-06T11:25:57.095Z,99519.11
2018-02-06T11:28:24.682Z,99527.61
2018-02-06T11:30:52.497Z,99521.94
2018-02-06T11:33:20.113Z,99518.66
2018-02-06T11:35:47.934Z,99519.64
2018-02-06T11:38:15.615Z,99519.67
2018-02-06T11:40:43.187Z,99518.55
2018-02-06T11:43:10.894Z,99514.39
2018-02-06T11:45:38.502Z,99515.08
2018-02-06T11:48:06.233Z,99518.77
2018-02-06T11:50:33.871Z,99526.44
2018-02-06T11:53:01.638Z,99518.99
2018-02-06T11:55:29.319Z,99516.50
2018-02-06T11:57:57.592Z,99505.81
2018-02-06T12:00:25.205Z,99510.05
2018-02-06T12:02:52.770Z,99510.11
2018-02-06T12:05:20.331Z,99506.88
2018-02-06T12:07:48.114Z,99494.29
2018-02-06T12:10:15.817Z,99496.96
2018-02-06T12:12:43.542Z,99494.39
2018-02-06T12:15:11.319Z,99500.67
2018-02-06T12:17:38.928Z,99505.17
2018-02-06T12:20:06.500Z,99496.54
2018-02-06T12:22:34.069Z,99498.99
2018-02-06T12:25:01.680Z,99503.52
2018-02-06T12:27:29.237Z,99496.67
2018-02-06T12:29:56.972Z,99501.55
2018-02-06T12:32:24.552Z,99494.70
2018-02-06T12:34:52.122Z,99494.39
2018-02-06T12:37:19.841Z,99486.34
2018-02-06T12:39:47.401Z,99482.89
2018-02-06T12:42:15.216Z,99478.57
2018-02-06T12:44:43.035Z,99473.37
2018-02-06T12:47:10.751Z,99478.15
2018-02-06T12:49:38.327Z,99474.53
2018-02-06T12:52:05.975Z,99470.10
2018-02-06T12:54:33.683Z,99460.52
2018-02-06T12:57:01.242Z,99467.72
2018-02-06T12:59:28.794Z,99473.09
2018-02-06T13:01:56.361Z,99472.17
2018-02-06T13:04:24.069Z,99485.58
2018-02-06T13:06:51.626Z,99478.60
2018-02-06T13:09:19.321Z,99483.49
2018-02-06T13:11:47.132Z,99478.23
2018-02-06T13:14:14.697Z,99478.95
2018-02-06T13:16:42.278Z,99479.22
2018-02-06T13:19:10.088Z,99478.14
2018-02-06T13:21:37.760Z,99479.73
2018-02-06T13:24:05.365Z,99483.36
2018-02-06T13:26:32.886Z,99485.14
2018-02-06T13:29:00.449Z,99482.70
2018-02-06T13:31:28.022Z,99487.54
2018-02-06T13:33:55.795Z,99490.84
2018-02-06T13:36:23.512Z,99478.95
2018-02-06T13:38:51.139Z,99477.41
2018-02-06T13:41:18.697Z,99480.94
2018-02-06T13:43:46.258Z,99470.06
2018-02-06T13:46:13.974Z,99483.85
2018-02-06T13:48:41.550Z,99480.81
2018-02-06T13:51:09.421Z,99486.59
2018-02-06T13:53:37.239Z,99501.31
2018-02-06T13:56:04.805Z,99496.25
2018-02-06T13:58:32.411Z,99484.59
2018-02-06T14:00:59.976Z,99483.58
2018-02-06T14:03:27.601Z,99481.08
2018-02-06T14:05:55.168Z,99485.24
2018-02-06T14:08:22.737Z,99484.75
2018-02-06T14:10:50.352Z,99490.56
2018-02-06T14:13:18.114Z,99496.50
2018-02-06T14:15:45.810Z,99491.23
2018-02-06T14:18:13.393Z,99498.63
2018-02-06T14:20:41.036Z,99497.62
2018-02-06T14:23:08.595Z,99494.30
2018-02-06T14:25:36.156Z,99490.98
2018-02-06T14:28:03.738Z,99490.39
2018-02-06T14:30:31.506Z,99492.73
2018-02-06T14:32:59.221Z,99491.42
2018-02-06T14:35:27.015Z,99501.86
2018-02-06T14:37:57.503Z,99496.69
2018-02-06T14:40:25.187Z,99491.84
2018-02-06T14:42:52.749Z,99488.84
2018-02-06T14:45:20.345Z,99492.23
2018-02-06T14:47:48.141Z,99491.59
2018-02-06T14:50:15.717Z,99500.08
2018-02-06T14:52:43.478Z,99503.38
2018-02-06T14:55:11.296Z,99501.38
2018-02-06T14:57:39.014Z,99499.41
2018-02-06T15:00:06.596Z,99486.53
2018-02-06T15:02:34.351Z,99496.95
2018-02-06T15:05:01.916Z,99505.81
2018-02-06T15:07:29.553Z,99501.73
2018-02-06T15:09:57.271Z,99502.03
2018-02-06T15:12:24.840Z,99506.61
2018-02-06T15:14:52.422Z,99508.17
2018-02-06T15:17:20.174Z,99510.91
2018-02-06T15:19:47.767Z,99513.25
2018-02-06T15:22:15.494Z,99511.36
2018-02-06T15:24:43.213Z,99516.04
2018-02-06T15:27:11.031Z,99513.63
2018-02-06T15:29:38.597Z,99513.41
2018-02-06T15:32:06.244Z,99515.75
2018-02-06T15:34:33.804Z,99519.20
2018-02-06T15:37:01.375Z,99521.45
2018-02-06T15:39:29.120Z,99521.55
2018-02-06T15:41:56.839Z,99539.20
2018-02-06T15:44:24.409Z,99536.34
2018-02-06T15:46:51.969Z,99541.20
2018-02-06T15:49:19.582Z,99536.64
2018-02-06T15:51:47.142Z,99540.50
2018-02-06T15:54:14.710Z,99547.44
2018-02-06T15:56:42.282Z,99545.46
2018-02-06T15:59:09.881Z,99542.55
2018-02-06T16:01:37.481Z,99547.36
2018-02-06T16:04:05.097Z,99541.55
2018-02-06T16:06:32.666Z,99540.50
2018-02-06T16:09:00.315Z,99548.31
2018-02-06T16:11:27.884Z,99544.28
2018-02-06T16:13:55.443Z,99548.70
2018-02-06T16:16:23.057Z,99551.28
2018-02-06T16:18:50.617Z,99557.14
2018-02-06T16:21:18.213Z,99560.27
2018-02-06T16:23:45.814Z,99557.42
2018-02-06T16:26:13.374Z,99560.03
2018-02-06T16:28:41.190Z,99574.57
2018-02-06T16:31:08.755Z,99574.78
2018-02-06T16:33:36.517Z,99586.03
2018-02-06T16:36:04.126Z,99580.55
2018-02-06T16:38:31.685Z,99584.86
2018-02-06T16:40:59.263Z,99589.52
2018-02-06T16:43:26.829Z,99589.16
2018-02-06T16:45:54.602Z,99587.38
2018-02-06T16:48:22.236Z,99588.53
2018-02-06T16:50:50.246Z,99588.77
2018-02-06T16:53:17.899Z,99592.09
2018-02-06T16:55:45.475Z,99585.95
2018-02-06T16:58:13.291Z,99593.09
2018-02-06T17:00:40.877Z,99591.30
2018-02-06T17:03:08.509Z,99592.48
2018-02-06T17:05:36.069Z,99599.36
2018-02-06T17:08:03.762Z,99601.92
2018-02-06T17:10:31.362Z,99593.66
2018-02-06T17:12:59.006Z,99595.30
2018-02-06T17:15:26.557Z,99593.61
2018-02-06T17:17:54.337Z,99602.97
2018-02-06T17:20:21.899Z,99595.25
2018-02-06T17:22:49.449Z,99597.40
2018-02-06T17:25:17.191Z,99603.34
2018-02-06T17:27:44.752Z,99605.06
2018-02-06T17:30:12.467Z,99606.88
2018-02-06T17:32:40.031Z,99612.77
2018-02-06T17:35:07.607Z,99612.48
2018-02-06T17:37:35.198Z,99614.84
2018-02-06T17:40:02.753Z,99624.70
2018-02-06T17:42:30.322Z,99615.45
2018-02-06T17:44:58.057Z,99616.52
2018-02-06T17:47:25.670Z,99617.84
2018-02-06T17:49:53.230Z,99621.27
2018-02-06T17:52:20.785Z,99622.59
2018-02-06T17:54:48.605Z,99622.44
2018-02-06T17:57:16.194Z,99626.64
2018-02-06T17:59:43.810Z,99625.20
2018-02-06T18:02:11.558Z,99630.05
2018-02-06T18:04:39.183Z,99626.20
2018-02-06T18:07:06.786Z,99623.78
2018-02-06T18:09:34.518Z,99624.20
2018-02-06T18:12:02.134Z,99619.36
2018-02-06T18:14:29.721Z,99616.32
2018-02-06T18:16:57.361Z,99617.03
2018-02-06T18:19:24.914Z,99610.86
2018-02-06T18:21:52.524Z,99612.52
2018-02-06T18:24:20.197Z,99614.19
2018-02-06T18:26:47.929Z,99618.78
2018-02-06T18:29:15.656Z,99619.20
2018-02-06T18:31:43.260Z,99607.57
2018-02-06T18:34:10.943Z,99610.13
2018-02-06T18:36:38.513Z,99601.62
2018-02-06T18:39:06.139Z,99603.02
2018-02-06T18:41:33.946Z,99604.86
2018-02-06T18:44:01.554Z,99610.64
2018-02-06T18:46:29.262Z,99614.64
2018-02-06T18:48:56.826Z,99610.44
2018-02-06T18:51:24.510Z,99605.89
2018-02-06T18:53:52.260Z,99600.66
2018-02-06T18:56:19.890Z,99600.20
2018-02-06T18:58:47.440Z,99600.14
2018-02-06T19:01:14.999Z,99604.02
2018-02-06T19:03:42.691Z,99593.88
2018-02-06T19:06:10.417Z,99594.26
2018-02-06T19:08:38.059Z,99596.10
2018-02-06T19:11:05.862Z,99593.88
2018-02-06T19:13:33.475Z,99595.26
2018-02-06T19:16:01.174Z,99590.55
2018-02-06T19:18:28.917Z,99593.00
2018-02-06T19:20:56.503Z,99596.56
2018-02-06T19:23:24.076Z,99596.75
2018-02-06T19:25:51.652Z,99595.17
2018-02-06T19:28:19.274Z,99593.27
2018-02-06T19:30:47.120Z,99586.38
2018-02-06T19:33:14.682Z,99591.94
2018-02-06T19:35:42.249Z,99598.66
2018-02-06T19:38:10.060Z,99586.16
2018-02-06T19:40:37.780Z,99599.91
2018-02-06T19:43:05.437Z,99596.27
2018-02-06T19:45:33.106Z,99595.04
2018-02-06T19:48:00.682Z,99593.74
2018-02-06T19:50:28.520Z,99599.23
2018-02-06T19:52:56.082Z,99611.73
2018-02-06T19:55:23.666Z,99603.44
2018-02-06T19:57:51.406Z,99604.02
2018-02-06T20:00:19.242Z,99608.38
2018-02-06T20:02:47.043Z,99599.30
2018-02-06T20:05:14.602Z,99583.34
2018-02-06T20:07:42.378Z,99613.84
2018-02-06T20:10:09.953Z,99609.22
2018-02-06T20:12:37.538Z,99617.77
2018-02-06T20:15:05.089Z,99620.29
2018-02-06T20:17:32.703Z,99618.25
2018-02-06T20:20:00.262Z,99622.69
2018-02-06T20:22:27.871Z,99618.16
2018-02-06T20:24:55.438Z,99621.81
2018-02-06T20:27:22.995Z,99622.11
2018-02-06T20:29:50.548Z,99627.20
2018-02-06T20:32:18.118Z,99622.58
2018-02-06T20:34:45.975Z,99624.30
2018-02-06T20:37:13.792Z,99629.43
2018-02-06T20:39:41.360Z,99624.67
2018-02-06T20:42:09.229Z,99626.42
2018-02-06T20:44:36.825Z,99626.97
2018-02-06T20:47:04.398Z,99621.55
2018-02-06T20:49:31.953Z,99624.31
2018-02-06T20:51:59.763Z,99617.38
2018-02-06T20:54:27.315Z,99627.13
2018-02-06T20:56:54.878Z,99626.47
2018-02-06T20:59:22.610Z,99625.56
2018-02-06T21:01:50.181Z,99631.70
2018-02-06T21:04:18.091Z,99639.99
2018-02-06T21:06:45.909Z,99635.06
2018-02-06T21:09:13.468Z,99631.93
2018-02-06T21:11:41.042Z,99629.70
2018-02-06T21:14:08.763Z,99628.18
2018-02-06T21:16:36.549Z,99621.78
2018-02-06T21:19:04.265Z,99624.23
2018-02-06T21:21:31.840Z,99624.52
2018-02-06T21:23:59.635Z,99616.23
2018-02-06T21:26:27.354Z,99613.84
2018-02-06T21:28:55.002Z,99621.37
2018-02-06T21:31:22.675Z,99606.19
2018-02-06T21:33:50.295Z,99615.27
2018-02-06T21:36:17.945Z,99617.16
2018-02-06T21:38:45.537Z,99611.17
2018-02-06T21:41:13.205Z,99595.84
2018-02-06T21:43:40.829Z,99607.00
2018-02-06T21:46:09.568Z,99607.39
2018-02-06T21:48:37.238Z,99621.39
2018-02-06T21:51:04.805Z,99608.16
2018-02-06T21:53:32.516Z,99595.80
2018-02-06T21:56:00.153Z,99606.33
2018-02-06T21:58:27.891Z,99601.55
2018-02-06T22:00:55.712Z,99593.44
2018-02-06T22:03:23.529Z,99602.09
2018-02-06T22:05:51.726Z,99599.21
2018-02-06T22:08:19.302Z,99596.20
2018-02-06T22:10:46.897Z,99592.84
2018-02-06T22:13:14.702Z,99604.86
2018-02-06T22:15:42.823Z,99602.98
2018-02-06T22:18:10.754Z,99562.56
2018-02-06T22:20:38.313Z,99597.31
2018-02-06T22:23:05.874Z,99593.82
2018-02-06T22:25:33.595Z,99595.56
2018-02-06T22:28:01.417Z,99595.95
2018-02-06T22:30:29.332Z,99605.48
2018-02-06T22:32:57.154Z,99600.05
2018-02-06T22:35:24.759Z,99621.04
2018-02-06T22:37:52.325Z,99605.38
2018-02-06T22:40:19.906Z,99617.05
2018-02-06T22:42:47.722Z,99627.80
2018-02-06T22:45:15.275Z,99615.95
2018-02-06T22:47:43.060Z,99631.52
2018-02-06T22:50:10.878Z,99625.69
2018-02-06T22:52:38.466Z,99629.20
2018-02-06T22:55:06.019Z,99624.49
2018-02-06T22:57:33.609Z,99630.30
2018-02-06T23:00:01.329Z,99627.48
2018-02-06T23:02:29.050Z,99630.55
2018-02-06T23:04:56.666Z,99634.52
2018-02-06T23:07:24.294Z,99633.67
2018-02-06T23:09:52.028Z,99620.53
2018-02-06T23:12:19.840Z,99631.61
2018-02-06T23:14:48.008Z,99595.08
2018-02-06T23:17:15.780Z,99624.34
2018-02-06T23:19:43.371Z,99622.47
2018-02-06T23:22:11.114Z,99622.14
2018-02-06T23:24:38.673Z,99621.22
2018-02-06T23:27:06.432Z,99616.83
2018-02-06T23:29:34.149Z,99622.59
2018-02-06T23:32:02.050Z,99621.85
2018-02-06T23:34:29.853Z,99626.47
2018-02-06T23:36:57.629Z,99620.17
2018-02-06T23:39:25.361Z,99624.29
2018-02-06T23:41:52.934Z,99609.41
2018-02-06T23:44:20.569Z,99617.43
2018-02-06T23:46:48.764Z,99615.81
2018-02-06T23:49:16.326Z,99623.47
2018-02-06T23:51:44.351Z,99626.00
2018-02-06T23:54:12.236Z,99629.89
2018-02-06T23:56:39.951Z,99628.78
2018-02-06T23:59:07.791Z,99620.02
